This is the latest recevied weather packets stored in our database for station/object M0ADS. If no packets are shown the sender has not sent any weather packets the latest 10 day(s).
| Time | Temp. | Humidity | Pressure | Rain* | Wind** | Luminosity | Snow |
|---|---|---|---|---|---|---|---|
| 1777538901 | 14.44° C | 64% | 1024.8 hPa | 0 mm | - | - | - |
| 1777538001 | 13.89° C | 65% | 1025 hPa | 0 mm | - | - | - |
| 1777537101 | 13.33° C | 67% | 1025 hPa | 0 mm | - | - | - |
| 1777536201 | 12.78° C | 72% | 1025.1 hPa | 0 mm | - | - | - |
| 1777535301 | 11.67° C | 75% | 1025.2 hPa | 0 mm | - | - | - |
| 1777534400 | 11.11° C | 76% | 1025.3 hPa | 0 mm | - | - | - |
| 1777533501 | 10.56° C | 78% | 1025.5 hPa | 0 mm | - | - | - |
| 1777532601 | 10.56° C | 80% | 1025.6 hPa | 0 mm | - | - | - |
| 1777531700 | 9.44° C | 82% | 1025.6 hPa | 0 mm | - | - | - |
| 1777530801 | 8.33° C | 85% | 1025.6 hPa | 0 mm | - | - | - |
| 1777529900 | 7.22° C | 87% | 1025.6 hPa | 0 mm | - | - | - |
| 1777529001 | 6.67° C | 89% | 1025.7 hPa | 0 mm | - | - | - |
| 1777528100 | 5.56° C | 89% | 1025.8 hPa | 0 mm | - | - | - |
| 1777527199 | 5° C | 89% | 1025.7 hPa | 0 mm | - | - | - |
| 1777526299 | 5° C | 89% | 1025.9 hPa | 0 mm | - | - | - |
| 1777525400 | 4.44° C | 89% | 1025.8 hPa | 0 mm | - | - | - |
| 1777524499 | 4.44° C | 89% | 1025.8 hPa | 0 mm | - | - | - |
| 1777523596 | 4.44° C | 89% | 1025.7 hPa | 0 mm | - | - | - |
| 1777522696 | 4.44° C | 88% | 1025.7 hPa | 0 mm | - | - | - |
| 1777521797 | 4.44° C | 88% | 1025.8 hPa | 0 mm | - | - | - |
| 1777520894 | 4.44° C | 88% | 1025.9 hPa | 0 mm | - | - | - |
| 1777519994 | 4.44° C | 87% | 1025.9 hPa | 0 mm | - | - | - |
| 1777519094 | 4.44° C | 87% | 1026.1 hPa | 0 mm | - | - | - |
| 1777518192 | 4.44° C | 87% | 1026.2 hPa | 0 mm | - | - | - |
| 1777517290 | 4.44° C | 86% | 1026.3 hPa | 0 mm | - | - | - |
* Rain latest hour (hover to see other rain measurements)
** Current wind speed in m/s (hover to see current wind gust speed)